Time;durP1;ratioP1;P1;durP2;ratioP2;P2;SDS_P1;SDS_P2;PMS_P1;PMS_P2;Temp;Humidity;BMP_temperature;BMP_pressure;BME280_temperature;BME280_humidity;BME280_pressure;Samples;Min_cycle;Max_cycle;Signal;HPM_P1;HPM_P2
2021/09/22 00:00:16;;;;;;;25.67;16.83;;;13.00;99.90;;;;;;4985143;28;25057;-74
2021/09/22 00:02:42;;;;;;;23.92;16.50;;;13.00;99.90;;;;;;4987800;28;25163;-74
2021/09/22 00:05:09;;;;;;;21.27;15.35;;;13.20;99.90;;;;;;4988090;28;25089;-74
2021/09/22 00:07:34;;;;;;;25.52;17.05;;;13.30;99.90;;;;;;4988110;28;25080;-73
2021/09/22 00:10:00;;;;;;;24.20;17.30;;;13.20;99.90;;;;;;4986121;28;25063;-74
2021/09/22 00:12:26;;;;;;;23.17;16.52;;;13.00;99.90;;;;;;4985989;28;25082;-76
2021/09/22 00:14:51;;;;;;;21.70;16.40;;;13.00;99.90;;;;;;4990330;28;25062;-74
2021/09/22 00:17:17;;;;;;;26.10;17.10;;;13.00;99.90;;;;;;4985802;28;25137;-74
2021/09/22 00:19:43;;;;;;;22.92;16.42;;;12.80;99.90;;;;;;4987228;28;25068;-75
2021/09/22 00:22:09;;;;;;;24.88;17.38;;;12.80;99.90;;;;;;4984798;28;24785;-74
2021/09/22 00:24:35;;;;;;;21.17;16.80;;;12.80;99.90;;;;;;4984894;28;25052;-76
2021/09/22 00:27:02;;;;;;;22.42;17.90;;;12.70;99.90;;;;;;4980520;28;25074;-75
2021/09/22 00:29:28;;;;;;;25.33;17.20;;;12.70;99.90;;;;;;4985140;28;25084;-73
2021/09/22 00:31:53;;;;;;;24.50;19.33;;;12.60;99.90;;;;;;4966175;28;1042768;-76
2021/09/22 00:34:25;;;;;;;27.05;19.70;;;12.50;99.90;;;;;;5012035;28;25102;-77
2021/09/22 00:36:55;;;;;;;28.63;19.40;;;12.50;99.90;;;;;;5016097;28;25076;-75
2021/09/22 00:39:24;;;;;;;27.45;19.85;;;12.50;99.90;;;;;;5014372;28;25098;-74
2021/09/22 00:41:51;;;;;;;27.55;19.50;;;12.50;99.90;;;;;;4998554;28;25165;-74
2021/09/22 00:44:19;;;;;;;27.60;19.23;;;12.50;99.90;;;;;;4990669;28;25077;-72
2021/09/22 00:46:44;;;;;;;29.70;19.77;;;12.50;99.90;;;;;;4989409;28;25155;-73
2021/09/22 00:49:10;;;;;;;27.42;20.98;;;12.50;99.90;;;;;;4989287;28;25076;-74
2021/09/22 00:51:36;;;;;;;26.00;20.35;;;12.50;99.90;;;;;;4993674;28;25062;-73
2021/09/22 00:54:01;;;;;;;27.17;18.83;;;12.50;99.90;;;;;;4980988;28;25056;-74
2021/09/22 00:56:28;;;;;;;27.58;20.13;;;12.50;99.90;;;;;;4973928;28;25064;-75
2021/09/22 00:58:54;;;;;;;26.58;18.75;;;12.50;99.90;;;;;;4975831;28;25054;-73
2021/09/22 01:01:20;;;;;;;27.08;19.13;;;12.50;99.90;;;;;;4993346;28;25163;-73
2021/09/22 01:03:46;;;;;;;22.92;17.35;;;12.40;99.90;;;;;;4972551;28;25080;-74
2021/09/22 01:06:15;;;;;;;29.23;20.00;;;12.40;99.90;;;;;;4980657;28;25085;-74
2021/09/22 01:08:42;;;;;;;27.48;19.70;;;12.40;99.90;;;;;;4983394;28;25153;-75
2021/09/22 01:11:08;;;;;;;24.42;19.75;;;12.40;99.90;;;;;;4980487;28;25068;-74
2021/09/22 01:13:34;;;;;;;24.17;17.48;;;12.30;99.90;;;;;;4973586;28;25059;-73
2021/09/22 01:15:59;;;;;;;28.17;19.15;;;12.30;99.90;;;;;;4984078;28;25065;-74
2021/09/22 01:18:25;;;;;;;32.03;21.92;;;12.30;99.90;;;;;;4985765;28;25075;-74
2021/09/22 01:20:57;;;;;;;28.55;21.05;;;12.20;99.90;;;;;;4991165;28;25052;-74
2021/09/22 01:23:25;;;;;;;31.35;21.85;;;12.20;99.90;;;;;;4987120;28;25076;-73
2021/09/22 01:25:52;;;;;;;29.52;22.13;;;12.20;99.90;;;;;;5002407;28;25050;-74
2021/09/22 01:28:20;;;;;;;33.83;22.90;;;12.20;99.90;;;;;;4986311;28;25057;-75
2021/09/22 01:30:48;;;;;;;25.83;19.95;;;12.20;99.90;;;;;;4981622;28;25088;-76
2021/09/22 01:33:15;;;;;;;31.65;21.92;;;12.20;99.90;;;;;;4987750;28;25052;-74
2021/09/22 01:35:43;;;;;;;34.13;22.98;;;12.20;99.90;;;;;;4990416;28;25076;-73
2021/09/22 01:38:18;;;;;;;36.78;24.83;;;12.10;99.90;;;;;;4988423;28;25087;-75
2021/09/22 01:41:03;;;;;;;32.25;23.48;;;12.10;99.90;;;;;;4984537;28;25147;-75
2021/09/22 01:43:31;;;;;;;28.13;21.67;;;12.10;99.90;;;;;;4982432;28;25112;-75
2021/09/22 01:45:59;;;;;;;39.42;27.95;;;12.10;99.90;;;;;;4981327;28;25072;-73
2021/09/22 01:48:26;;;;;;;36.50;25.38;;;12.10;99.90;;;;;;4983825;28;25112;-75
2021/09/22 01:50:53;;;;;;;39.63;27.52;;;12.10;99.90;;;;;;4992981;28;25057;-73
2021/09/22 01:53:18;;;;;;;41.95;27.35;;;12.10;99.90;;;;;;4980272;28;25060;-74
2021/09/22 01:55:44;;;;;;;43.60;29.48;;;12.10;99.90;;;;;;4982949;28;25064;-72
2021/09/22 01:58:10;;;;;;;36.25;25.25;;;12.10;99.90;;;;;;4984352;28;25096;-74
2021/09/22 02:00:36;;;;;;;45.13;29.15;;;12.00;99.90;;;;;;4996767;28;25064;-75
2021/09/22 02:03:02;;;;;;;42.63;29.88;;;12.00;99.90;;;;;;4993217;28;25109;-74
2021/09/22 02:05:28;;;;;;;43.60;31.50;;;12.00;99.90;;;;;;4991240;28;25098;-74
2021/09/22 02:07:54;;;;;;;42.70;30.35;;;12.00;99.90;;;;;;4990722;28;25071;-74
2021/09/22 02:10:19;;;;;;;41.60;29.13;;;12.00;99.90;;;;;;5000949;28;25050;-73
2021/09/22 02:12:45;;;;;;;40.15;28.15;;;12.00;99.90;;;;;;4992668;28;25067;-73
2021/09/22 02:15:11;;;;;;;37.92;28.45;;;12.00;99.90;;;;;;4991065;28;25131;-74
2021/09/22 02:17:36;;;;;;;36.22;28.27;;;12.00;99.90;;;;;;4991398;28;25112;-73
2021/09/22 02:20:04;;;;;;;39.95;28.40;;;12.00;99.90;;;;;;4991022;28;25142;-74
2021/09/22 02:22:29;;;;;;;40.05;27.63;;;12.00;99.90;;;;;;4989421;28;25093;-73
2021/09/22 02:24:55;;;;;;;37.65;25.33;;;11.90;99.90;;;;;;4990031;28;25086;-73
2021/09/22 02:27:21;;;;;;;36.20;26.60;;;12.00;99.90;;;;;;4990398;28;25088;-72
2021/09/22 02:29:47;;;;;;;39.65;27.45;;;12.10;99.90;;;;;;4999401;28;25065;-74
2021/09/22 02:32:14;;;;;;;48.05;34.35;;;12.10;99.90;;;;;;4983777;28;25080;-73
2021/09/22 02:34:39;;;;;;;48.75;35.00;;;11.90;99.90;;;;;;4997768;28;25108;-73
2021/09/22 02:37:06;;;;;;;56.30;36.15;;;12.00;99.90;;;;;;4988443;28;25153;-73
2021/09/22 02:39:33;;;;;;;49.97;34.53;;;11.90;99.90;;;;;;5004173;28;25056;-73
2021/09/22 02:41:58;;;;;;;47.92;33.90;;;11.90;99.90;;;;;;4990772;28;25058;-73
2021/09/22 02:44:24;;;;;;;45.28;30.83;;;12.00;99.90;;;;;;4990725;28;25082;-73
2021/09/22 02:46:51;;;;;;;49.38;35.30;;;12.00;99.90;;;;;;4983917;28;25052;-72
2021/09/22 02:49:18;;;;;;;49.05;34.17;;;11.90;99.90;;;;;;4991871;28;25064;-73
2021/09/22 02:51:44;;;;;;;48.53;34.38;;;11.90;99.90;;;;;;4991632;28;25087;-75
2021/09/22 02:54:10;;;;;;;46.85;30.80;;;11.90;99.90;;;;;;4992386;28;25055;-73
2021/09/22 02:56:35;;;;;;;51.72;36.35;;;11.90;99.90;;;;;;4990587;28;25082;-74
2021/09/22 02:59:01;;;;;;;54.90;36.17;;;11.90;99.90;;;;;;4989043;28;25082;-72
2021/09/22 03:01:27;;;;;;;49.33;34.17;;;11.90;99.90;;;;;;4990520;28;25093;-72
2021/09/22 03:03:52;;;;;;;54.25;35.20;;;11.90;99.90;;;;;;4990351;28;25054;-71
2021/09/22 03:06:18;;;;;;;52.50;35.90;;;11.90;99.90;;;;;;4980436;28;25058;-73
2021/09/22 03:08:44;;;;;;;55.22;37.05;;;11.90;99.90;;;;;;4979702;28;25075;-74
2021/09/22 03:11:09;;;;;;;59.28;40.55;;;11.90;99.90;;;;;;4985076;28;25080;-74
2021/09/22 03:13:37;;;;;;;56.20;39.80;;;11.90;99.90;;;;;;4989416;28;25110;-76
2021/09/22 03:16:04;;;;;;;56.45;37.80;;;11.80;99.90;;;;;;4987368;28;25136;-73
2021/09/22 03:18:30;;;;;;;57.38;36.42;;;11.80;99.90;;;;;;4991983;28;25107;-73
2021/09/22 03:20:56;;;;;;;51.63;35.97;;;11.80;99.90;;;;;;4997607;28;25053;-73
2021/09/22 03:23:22;;;;;;;51.67;35.42;;;11.80;99.90;;;;;;4990150;28;25147;-74
2021/09/22 03:25:48;;;;;;;59.50;38.53;;;11.80;99.90;;;;;;4997278;28;25164;-72
2021/09/22 03:28:13;;;;;;;56.25;38.08;;;11.70;99.90;;;;;;4989368;28;25102;-74
2021/09/22 03:30:40;;;;;;;55.15;38.13;;;11.70;99.90;;;;;;5015599;28;25109;-72
2021/09/22 03:33:06;;;;;;;57.85;39.15;;;11.80;99.90;;;;;;4989715;28;25073;-74
2021/09/22 03:35:31;;;;;;;59.17;39.80;;;11.90;99.90;;;;;;4997471;28;25142;-71
2021/09/22 03:37:57;;;;;;;54.67;38.85;;;11.80;99.90;;;;;;4984651;28;25063;-73
2021/09/22 03:40:23;;;;;;;51.22;37.88;;;11.80;99.90;;;;;;4987941;28;25115;-72
2021/09/22 03:42:49;;;;;;;54.63;37.95;;;11.70;99.90;;;;;;4992290;28;25062;-73
2021/09/22 03:45:15;;;;;;;58.78;37.20;;;11.70;99.90;;;;;;4982907;28;25134;-72
2021/09/22 03:47:41;;;;;;;57.10;39.30;;;11.70;99.90;;;;;;4991911;28;25075;-73
2021/09/22 03:50:07;;;;;;;56.03;38.08;;;11.70;99.90;;;;;;4989393;28;25053;-72
2021/09/22 03:52:33;;;;;;;62.53;41.20;;;11.70;99.90;;;;;;4989774;28;25098;-72
2021/09/22 03:54:59;;;;;;;63.63;42.67;;;11.60;99.90;;;;;;4982066;28;25111;-73
2021/09/22 03:57:25;;;;;;;65.90;41.47;;;11.60;99.90;;;;;;4981119;28;25080;-72
2021/09/22 03:59:51;;;;;;;64.22;41.13;;;11.60;99.90;;;;;;4978740;28;25068;-73
2021/09/22 04:02:16;;;;;;;62.17;43.28;;;11.60;99.90;;;;;;4989297;28;25098;-73
2021/09/22 04:04:42;;;;;;;60.97;41.65;;;11.50;99.90;;;;;;4991621;28;25075;-72
2021/09/22 04:07:08;;;;;;;62.60;41.55;;;11.60;99.90;;;;;;5004657;28;25082;-72
2021/09/22 04:09:34;;;;;;;66.63;44.42;;;11.60;99.90;;;;;;4990663;28;25055;-73
2021/09/22 04:11:59;;;;;;;68.18;43.38;;;11.60;99.90;;;;;;4997369;28;25101;-72
2021/09/22 04:14:25;;;;;;;66.07;42.30;;;11.50;99.90;;;;;;4995716;28;25086;-73
2021/09/22 04:16:51;;;;;;;68.00;44.05;;;11.50;99.90;;;;;;4982076;28;25060;-74
2021/09/22 04:19:16;;;;;;;63.15;43.60;;;11.50;99.90;;;;;;4995741;28;25144;-73
2021/09/22 04:21:43;;;;;;;58.83;40.33;;;11.50;99.90;;;;;;4987352;28;25131;-72
2021/09/22 04:24:10;;;;;;;58.97;40.65;;;11.40;99.90;;;;;;4988915;28;25160;-73
2021/09/22 04:26:37;;;;;;;66.03;41.80;;;11.50;99.90;;;;;;4987384;28;25070;-73
2021/09/22 04:29:02;;;;;;;64.22;43.00;;;11.50;99.90;;;;;;4986283;28;25063;-72
2021/09/22 04:31:28;;;;;;;65.70;43.92;;;11.50;99.90;;;;;;5000336;28;25078;-73
2021/09/22 04:33:54;;;;;;;57.47;38.53;;;11.50;99.90;;;;;;4981796;28;25123;-73
2021/09/22 04:36:19;;;;;;;62.13;41.17;;;11.50;99.90;;;;;;4994492;28;25062;-72
2021/09/22 04:38:45;;;;;;;61.85;40.88;;;11.40;99.90;;;;;;4984067;28;25070;-73
2021/09/22 04:41:11;;;;;;;70.65;44.85;;;11.40;99.90;;;;;;4976796;28;25133;-74
2021/09/22 04:43:36;;;;;;;63.90;43.92;;;11.50;99.90;;;;;;4989909;28;25112;-74
2021/09/22 04:46:02;;;;;;;69.45;45.42;;;11.50;99.90;;;;;;4985416;28;25058;-73
2021/09/22 04:48:29;;;;;;;65.32;44.72;;;11.50;99.90;;;;;;4993109;28;25074;-72
2021/09/22 04:50:55;;;;;;;60.55;42.25;;;11.50;99.90;;;;;;4985778;28;25083;-73
2021/09/22 04:53:20;;;;;;;68.80;45.75;;;11.50;99.90;;;;;;4981767;28;25063;-74
2021/09/22 04:55:46;;;;;;;61.65;43.28;;;11.50;99.90;;;;;;4995335;28;25056;-74
2021/09/22 04:58:19;;;;;;;67.13;45.30;;;11.50;99.90;;;;;;4979314;28;25052;-75
2021/09/22 05:00:44;;;;;;;;;;;11.40;99.90;;;;;;4982183;28;25113;-75
2021/09/22 05:03:10;;;;;;;58.22;41.38;;;11.40;99.90;;;;;;4986293;28;24096;-72
2021/09/22 05:05:36;;;;;;;60.83;41.40;;;11.40;99.90;;;;;;4980295;28;25074;-73
2021/09/22 05:08:01;;;;;;;61.00;41.58;;;11.40;99.90;;;;;;4979827;28;25061;-75
2021/09/22 05:10:27;;;;;;;66.40;44.15;;;11.40;99.90;;;;;;4978763;28;25044;-74
2021/09/22 05:12:53;;;;;;;64.70;42.28;;;11.40;99.90;;;;;;4983962;28;25076;-72
2021/09/22 05:15:19;;;;;;;67.90;43.10;;;11.40;99.90;;;;;;4979619;28;25153;-74
2021/09/22 05:17:44;;;;;;;62.20;42.13;;;11.40;99.90;;;;;;4984014;28;25065;-73
2021/09/22 05:20:10;;;;;;;66.40;44.13;;;11.40;99.90;;;;;;4983658;28;25159;-75
2021/09/22 05:22:36;;;;;;;64.88;43.38;;;11.40;99.90;;;;;;4982506;28;25092;-74
2021/09/22 05:25:03;;;;;;;62.70;41.25;;;11.30;99.90;;;;;;4987524;28;25093;-75
2021/09/22 05:27:30;;;;;;;68.20;43.20;;;11.40;99.90;;;;;;4986568;28;25071;-74
2021/09/22 05:29:56;;;;;;;62.25;42.05;;;11.30;99.90;;;;;;4973716;28;25143;-75
2021/09/22 05:32:22;;;;;;;64.88;41.85;;;11.30;99.90;;;;;;4976088;28;25140;-72
2021/09/22 05:34:47;;;;;;;63.35;40.88;;;11.20;99.90;;;;;;4995631;28;25054;-75
2021/09/22 05:37:13;;;;;;;59.13;41.10;;;11.30;99.90;;;;;;5003068;28;25069;-73
2021/09/22 05:39:39;;;;;;;62.25;42.53;;;11.30;99.90;;;;;;4985086;28;25136;-73
2021/09/22 05:42:05;;;;;;;64.57;44.03;;;11.30;99.90;;;;;;4987252;28;25083;-73
2021/09/22 05:44:31;;;;;;;60.15;40.97;;;11.30;99.90;;;;;;4990708;28;25098;-74
2021/09/22 05:46:57;;;;;;;61.03;41.92;;;11.30;99.90;;;;;;4988986;28;25115;-75
2021/09/22 05:49:22;;;;;;;73.18;46.92;;;11.30;99.90;;;;;;4993646;28;25058;-74
2021/09/22 05:51:48;;;;;;;61.85;42.17;;;11.30;99.90;;;;;;4992537;28;25102;-73
2021/09/22 05:54:15;;;;;;;62.47;42.25;;;11.30;99.90;;;;;;4999507;28;25068;-73
2021/09/22 05:56:42;;;;;;;57.75;39.30;;;11.40;99.90;;;;;;4989212;28;25108;-73
2021/09/22 05:59:08;;;;;;;60.78;41.50;;;11.40;99.90;;;;;;4984924;28;25050;-73
2021/09/22 06:01:34;;;;;;;58.38;40.45;;;11.50;99.90;;;;;;4997002;28;25073;-72
2021/09/22 06:03:59;;;;;;;56.30;39.80;;;11.50;99.90;;;;;;5003493;28;25167;-73
2021/09/22 06:06:25;;;;;;;62.88;43.30;;;11.50;99.90;;;;;;4984060;28;25091;-75
2021/09/22 06:08:51;;;;;;;63.78;41.28;;;11.50;99.90;;;;;;4984971;28;25052;-74
2021/09/22 06:11:22;;;;;;;58.95;39.90;;;11.60;99.90;;;;;;4978983;28;25081;-74
2021/09/22 06:13:52;;;;;;;60.80;40.80;;;11.60;99.90;;;;;;4984116;28;25068;-74
2021/09/22 06:16:22;;;;;;;63.20;42.42;;;11.60;99.90;;;;;;4972543;28;25147;-72
2021/09/22 06:18:47;;;;;;;57.65;40.58;;;11.60;99.90;;;;;;4978301;28;25082;-74
2021/09/22 06:21:13;;;;;;;58.80;39.20;;;11.60;99.90;;;;;;4991457;28;25156;-73
2021/09/22 06:23:39;;;;;;;59.58;41.25;;;11.60;99.90;;;;;;4991725;28;25082;-75
2021/09/22 06:26:05;;;;;;;63.08;41.33;;;11.70;99.90;;;;;;4991488;28;25082;-74
2021/09/22 06:28:30;;;;;;;57.83;41.15;;;11.80;99.90;;;;;;4986751;28;25066;-72
2021/09/22 06:30:56;;;;;;;60.05;41.22;;;11.90;99.90;;;;;;4991553;28;25073;-75
2021/09/22 06:33:22;;;;;;;61.10;40.58;;;12.00;99.90;;;;;;4989655;28;25067;-73
2021/09/22 06:35:47;;;;;;;59.45;38.55;;;12.10;99.90;;;;;;4998010;28;25060;-73
2021/09/22 06:38:13;;;;;;;56.88;39.60;;;12.10;99.90;;;;;;5010178;28;25154;-75
2021/09/22 06:40:39;;;;;;;60.65;40.15;;;12.20;99.90;;;;;;4989013;28;25068;-73
2021/09/22 06:43:05;;;;;;;62.60;40.63;;;12.30;99.90;;;;;;4995776;28;25053;-75
2021/09/22 06:45:32;;;;;;;51.78;35.45;;;12.40;99.90;;;;;;4989985;28;25121;-74
2021/09/22 06:47:59;;;;;;;60.45;37.83;;;12.40;99.90;;;;;;4997537;28;25092;-76
2021/09/22 06:50:25;;;;;;;55.33;37.92;;;12.50;99.90;;;;;;4983957;28;25069;-75
2021/09/22 06:52:51;;;;;;;53.08;36.33;;;12.50;99.90;;;;;;4994517;28;25046;-75
2021/09/22 06:55:17;;;;;;;53.25;35.67;;;12.60;99.90;;;;;;4988949;28;25127;-73
2021/09/22 06:57:43;;;;;;;55.17;37.80;;;12.70;99.90;;;;;;4981002;28;25075;-73
2021/09/22 07:00:10;;;;;;;52.50;37.63;;;12.80;99.90;;;;;;4990296;28;25145;-72
2021/09/22 07:02:37;;;;;;;58.20;37.83;;;12.90;99.90;;;;;;4981553;28;25065;-73
2021/09/22 07:05:07;;;;;;;48.10;35.95;;;13.00;99.90;;;;;;4973667;28;25059;-74
2021/09/22 07:07:33;;;;;;;52.08;36.53;;;13.10;99.90;;;;;;4986011;28;25130;-75
2021/09/22 07:09:58;;;;;;;51.58;34.30;;;13.20;99.90;;;;;;4995377;28;25056;-74
2021/09/22 07:12:24;;;;;;;55.95;35.10;;;13.20;99.90;;;;;;5000622;28;25078;-74
2021/09/22 07:14:50;;;;;;;50.22;34.90;;;13.30;99.90;;;;;;4998290;28;25065;-74
2021/09/22 07:17:18;;;;;;;48.88;34.60;;;13.30;99.90;;;;;;5000932;28;25081;-73
2021/09/22 07:19:56;;;;;;;48.67;32.88;;;13.40;99.90;;;;;;5007146;28;25093;-74
2021/09/22 07:22:21;;;;;;;51.47;34.30;;;13.50;99.90;;;;;;5021143;28;25099;-73
2021/09/22 07:24:49;;;;;;;46.97;34.17;;;13.40;99.90;;;;;;4986549;28;25102;-73
2021/09/22 07:27:15;;;;;;;45.95;31.67;;;13.60;99.90;;;;;;4983894;28;25163;-74
2021/09/22 07:29:40;;;;;;;46.33;32.30;;;13.80;99.90;;;;;;4981434;28;25102;-73
2021/09/22 07:32:07;;;;;;;48.20;32.67;;;13.90;99.90;;;;;;4986626;28;25080;-73
2021/09/22 07:34:34;;;;;;;45.75;30.48;;;14.10;99.90;;;;;;4981149;28;25134;-73
2021/09/22 07:37:01;;;;;;;49.50;34.25;;;14.10;99.90;;;;;;4977518;28;25086;-72
2021/09/22 07:39:27;;;;;;;45.85;31.73;;;14.20;99.90;;;;;;4989302;28;25099;-73
2021/09/22 07:41:52;;;;;;;42.03;30.63;;;14.20;99.90;;;;;;5002526;28;25079;-75
2021/09/22 07:44:18;;;;;;;40.78;29.38;;;14.20;99.90;;;;;;5005251;28;25050;-75
2021/09/22 07:46:43;;;;;;;42.35;30.05;;;14.40;99.90;;;;;;4987485;28;25125;-74
2021/09/22 07:49:09;;;;;;;41.25;28.35;;;14.60;99.90;;;;;;4995836;28;25061;-75
2021/09/22 07:51:35;;;;;;;41.15;29.42;;;14.70;99.90;;;;;;4980493;28;25077;-74
2021/09/22 07:54:00;;;;;;;46.85;29.13;;;14.80;99.90;;;;;;4997672;28;25079;-73
2021/09/22 07:56:26;;;;;;;40.63;27.58;;;14.90;99.90;;;;;;4991412;28;25140;-74
2021/09/22 07:58:51;;;;;;;33.85;25.45;;;15.10;99.90;;;;;;4997266;28;25069;-73
2021/09/22 08:01:17;;;;;;;37.58;27.30;;;15.20;99.90;;;;;;4993043;28;25117;-74
2021/09/22 08:03:43;;;;;;;40.72;28.92;;;15.30;99.90;;;;;;4991670;28;25070;-75
2021/09/22 08:22:59;;;;;;;25.77;18.58;;;15.50;99.90;;;;;;5082523;28;25089;-69
2021/09/22 08:25:25;;;;;;;25.65;18.15;;;16.20;99.90;;;;;;5061259;28;25140;-70
2021/09/22 08:27:50;;;;;;;27.92;18.83;;;16.40;99.90;;;;;;5051992;28;25062;-70
2021/09/22 08:30:16;;;;;;;23.08;16.80;;;16.50;99.90;;;;;;5046801;28;25075;-70
2021/09/22 08:32:42;;;;;;;21.17;16.80;;;16.70;99.90;;;;;;5031647;28;25067;-70
2021/09/22 08:35:09;;;;;;;30.63;16.77;;;16.90;99.90;;;;;;5054258;28;25063;-70
2021/09/22 08:37:34;;;;;;;22.70;15.40;;;17.10;99.90;;;;;;5054254;28;25071;-70
2021/09/22 08:40:01;;;;;;;25.48;16.85;;;17.40;99.90;;;;;;5050193;28;25064;-71
2021/09/22 08:42:26;;;;;;;19.30;15.18;;;17.40;99.90;;;;;;5054612;28;25076;-70
2021/09/22 08:44:53;;;;;;;25.58;15.52;;;17.50;99.90;;;;;;5057106;28;25049;-71
2021/09/22 08:47:19;;;;;;;21.08;15.13;;;17.70;99.90;;;;;;5062456;28;25061;-70
2021/09/22 08:49:46;;;;;;;25.75;15.85;;;17.70;99.90;;;;;;5043862;28;25067;-69
2021/09/22 08:52:12;;;;;;;19.38;14.75;;;17.80;99.90;;;;;;5045302;28;25143;-70
2021/09/22 08:54:40;;;;;;;21.58;15.45;;;17.90;99.90;;;;;;5064407;28;25048;-70
2021/09/22 08:57:06;;;;;;;22.90;15.55;;;18.30;99.90;;;;;;5049144;28;25101;-70
2021/09/22 08:59:32;;;;;;;27.25;16.15;;;18.30;99.90;;;;;;5057864;28;25146;-70
2021/09/22 09:02:09;;;;;;;21.77;15.07;;;18.20;99.90;;;;;;5056331;28;25050;-71
2021/09/22 09:04:37;;;;;;;20.70;14.93;;;18.00;99.90;;;;;;5054089;28;25132;-69
2021/09/22 09:07:03;;;;;;;22.55;14.40;;;17.90;99.90;;;;;;5052618;28;25150;-70
2021/09/22 09:09:37;;;;;;;24.90;15.30;;;18.00;99.90;;;;;;5057931;28;25095;-70
2021/09/22 09:12:14;;;;;;;26.05;15.38;;;18.00;99.90;;;;;;5053496;28;25082;-69
2021/09/22 09:14:39;;;;;;;19.10;14.70;;;17.90;99.90;;;;;;5044821;28;25394;-69
2021/09/22 09:17:11;;;;;;;27.63;14.95;;;17.90;99.90;;;;;;5061140;28;25072;-70
2021/09/22 09:19:44;;;;;;;30.45;15.65;;;18.00;99.90;;;;;;5058894;28;25118;-71
2021/09/22 09:22:09;;;;;;;23.05;15.48;;;18.10;99.90;;;;;;5062237;28;25103;-70
2021/09/22 09:24:45;;;;;;;19.52;13.82;;;17.90;99.90;;;;;;5046714;28;25130;-71
2021/09/22 09:27:31;;;;;;;22.83;15.75;;;17.90;99.90;;;;;;5029537;28;25084;-70
2021/09/22 09:29:58;;;;;;;26.58;14.75;;;18.00;99.90;;;;;;5030139;28;25111;-69
2021/09/22 09:32:30;;;;;;;27.70;15.45;;;18.00;99.90;;;;;;5029884;28;25158;-71
2021/09/22 09:35:03;;;;;;;21.75;15.80;;;18.10;99.90;;;;;;5066942;28;25067;-70
2021/09/22 09:37:41;;;;;;;24.58;15.73;;;17.90;99.90;;;;;;5069908;28;25062;-70
2021/09/22 09:40:35;;;;;;;30.70;17.00;;;17.90;99.90;;;;;;5057832;28;25068;-71
2021/09/22 09:43:06;;;;;;;26.30;16.20;;;17.80;99.90;;;;;;5047301;28;25102;-70
2021/09/22 09:45:41;;;;;;;22.77;16.17;;;17.80;99.90;;;;;;5032658;28;25167;-69
2021/09/22 09:48:12;;;;;;;27.52;16.48;;;17.90;99.90;;;;;;5042760;28;25074;-70
2021/09/22 09:50:41;;;;;;;24.05;16.77;;;17.90;99.90;;;;;;5040033;28;25063;-67
2021/09/22 09:53:08;;;;;;;25.38;16.75;;;18.00;99.90;;;;;;5036237;28;25054;-70
2021/09/22 09:55:38;;;;;;;23.52;17.35;;;18.00;99.90;;;;;;5034352;28;25118;-66
2021/09/22 09:58:03;;;;;;;29.65;18.08;;;18.00;99.90;;;;;;5036103;28;25088;-69
2021/09/22 10:00:50;;;;;;;21.50;16.77;;;18.00;99.90;;;;;;5031074;28;25104;-69
2021/09/22 10:03:21;;;;;;;30.63;18.52;;;18.10;99.90;;;;;;5029139;28;25053;-69
2021/09/22 10:05:48;;;;;;;22.60;16.73;;;18.20;99.90;;;;;;5028657;28;25060;-70
2021/09/22 10:08:16;;;;;;;22.42;17.33;;;18.30;99.90;;;;;;5033086;28;25128;-69
2021/09/22 10:10:43;;;;;;;30.27;18.20;;;18.40;99.90;;;;;;5034946;28;25065;-67
2021/09/22 10:13:11;;;;;;;25.25;17.42;;;18.40;99.90;;;;;;5031434;28;25085;-69
2021/09/22 10:15:39;;;;;;;22.90;17.38;;;18.30;99.90;;;;;;5031272;28;25129;-69
2021/09/22 10:18:06;;;;;;;26.80;18.58;;;18.40;99.90;;;;;;5034209;28;25061;-69
2021/09/22 10:20:32;;;;;;;27.55;18.38;;;18.40;99.90;;;;;;5034438;28;25077;-68
2021/09/22 10:22:59;;;;;;;25.17;17.40;;;18.40;99.90;;;;;;5036362;28;25061;-69
2021/09/22 10:25:25;;;;;;;22.50;17.10;;;18.50;99.90;;;;;;5034043;28;25140;-68
2021/09/22 10:27:51;;;;;;;27.55;17.42;;;18.40;99.90;;;;;;5042279;28;25090;-68
2021/09/22 10:30:30;;;;;;;27.85;17.05;;;18.50;99.90;;;;;;5033442;28;25091;-68
2021/09/22 10:32:55;;;;;;;26.40;16.23;;;18.60;99.90;;;;;;5029094;28;25060;-69
2021/09/22 10:35:24;;;;;;;23.30;17.55;;;18.60;99.90;;;;;;5029066;28;25069;-67
2021/09/22 10:37:54;;;;;;;24.52;15.77;;;18.60;99.90;;;;;;5031254;28;25152;-69
2021/09/22 10:40:34;;;;;;;23.70;15.63;;;18.70;99.90;;;;;;5034406;28;25106;-67
2021/09/22 10:43:24;;;;;;;23.05;16.67;;;18.70;99.90;;;;;;5044181;28;25090;-69
2021/09/22 10:46:16;;;;;;;20.65;15.27;;;18.70;99.90;;;;;;5048216;28;25129;-69
2021/09/22 10:48:50;;;;;;;26.15;15.10;;;18.80;99.90;;;;;;5050717;28;25064;-68
2021/09/22 10:51:37;;;;;;;24.23;15.68;;;18.90;99.90;;;;;;5031174;28;25175;-69
2021/09/22 10:54:05;;;;;;;18.27;13.05;;;19.00;99.90;;;;;;5029328;28;25077;-68
2021/09/22 10:56:31;;;;;;;19.10;13.15;;;19.10;99.90;;;;;;5037649;28;25061;-67
2021/09/22 10:58:59;;;;;;;18.42;12.82;;;19.10;99.90;;;;;;5037554;28;25050;-67
2021/09/22 11:01:39;;;;;;;18.27;12.05;;;19.20;99.90;;;;;;5030702;28;25142;-69
2021/09/22 11:04:05;;;;;;;18.48;12.07;;;19.40;99.90;;;;;;5032279;28;25132;-67
2021/09/22 11:06:46;;;;;;;17.65;11.40;;;19.70;99.90;;;;;;5029695;28;25059;-68
2021/09/22 11:09:19;;;;;;;16.58;12.18;;;19.50;99.90;;;;;;5032053;28;25143;-67
2021/09/22 11:11:58;;;;;;;22.08;12.90;;;19.70;99.90;;;;;;5032801;28;25041;-69
2021/09/22 11:14:27;;;;;;;15.75;11.88;;;19.80;99.90;;;;;;5025785;28;25091;-70
2021/09/22 11:16:54;;;;;;;18.02;12.07;;;20.10;99.90;;;;;;5037301;28;25056;-69
2021/09/22 11:19:21;;;;;;;19.65;12.70;;;19.80;99.90;;;;;;5035049;28;25090;-69
2021/09/22 11:21:48;;;;;;;19.40;13.35;;;19.90;99.90;;;;;;5039981;28;25144;-68
2021/09/22 11:24:18;;;;;;;15.07;12.45;;;19.90;99.90;;;;;;5035345;28;25156;-70
2021/09/22 11:26:51;;;;;;;16.73;12.45;;;20.10;99.90;;;;;;5032703;28;25074;-66
2021/09/22 11:29:49;;;;;;;24.10;14.70;;;20.40;99.90;;;;;;5036698;28;25058;-69
2021/09/22 11:32:27;;;;;;;15.40;11.48;;;20.90;99.90;;;;;;5031537;28;25067;-69
2021/09/22 11:35:07;;;;;;;18.67;10.60;;;21.10;99.90;;;;;;5031014;28;25063;-72
2021/09/22 11:37:39;;;;;;;18.23;11.50;;;21.60;99.90;;;;;;5027801;28;25070;-67
2021/09/22 11:40:17;;;;;;;22.23;13.15;;;21.90;99.60;;;;;;5031105;28;25096;-67
2021/09/22 11:43:05;;;;;;;19.23;11.43;;;22.10;99.00;;;;;;5031773;28;25053;-68
2021/09/22 11:45:35;;;;;;;18.80;11.27;;;22.20;98.60;;;;;;5031786;28;25055;-67
2021/09/22 11:48:09;;;;;;;17.58;10.45;;;22.40;97.90;;;;;;5037586;28;25135;-66
2021/09/22 11:50:38;;;;;;;16.92;10.18;;;22.50;98.10;;;;;;5036603;28;25080;-67
2021/09/22 11:53:07;;;;;;;16.10;10.52;;;22.70;96.50;;;;;;5033778;28;25095;-69
2021/09/22 11:55:34;;;;;;;19.90;10.18;;;23.20;95.70;;;;;;5023274;28;25045;-68
2021/09/22 11:58:08;;;;;;;22.52;9.57;;;22.90;95.80;;;;;;5032123;28;25153;-68
2021/09/22 12:00:35;;;;;;;14.38;8.95;;;23.30;95.00;;;;;;5027414;28;25061;-70
2021/09/22 12:03:11;;;;;;;12.40;8.88;;;23.50;94.30;;;;;;5039104;28;25127;-66
2021/09/22 12:05:38;;;;;;;16.77;9.65;;;23.10;93.40;;;;;;5027448;28;25080;-68
2021/09/22 12:08:04;;;;;;;12.93;9.10;;;22.90;93.30;;;;;;5026779;28;25072;-67
2021/09/22 12:10:30;;;;;;;14.02;8.70;;;22.60;94.10;;;;;;5033751;28;25111;-67
2021/09/22 12:13:03;;;;;;;13.52;8.68;;;23.10;93.40;;;;;;5042907;28;25061;-67
2021/09/22 12:15:31;;;;;;;11.43;9.23;;;23.50;92.90;;;;;;5028638;28;25127;-67
2021/09/22 12:17:56;;;;;;;15.63;9.18;;;23.50;92.30;;;;;;5040471;28;25145;-67
2021/09/22 12:20:22;;;;;;;12.25;8.55;;;23.30;91.20;;;;;;5034181;28;25103;-68
2021/09/22 12:23:00;;;;;;;15.10;8.73;;;23.00;92.10;;;;;;5039464;28;25125;-68
2021/09/22 12:25:26;;;;;;;12.00;7.50;;;23.40;91.50;;;;;;5035258;28;25090;-67
2021/09/22 12:27:52;;;;;;;15.73;8.10;;;23.70;90.70;;;;;;5037131;28;25076;-67
2021/09/22 12:30:27;;;;;;;10.77;8.40;;;23.80;91.10;;;;;;5027009;28;25072;-66
2021/09/22 12:32:59;;;;;;;12.15;7.85;;;23.80;89.50;;;;;;5043643;28;25071;-67
2021/09/22 12:35:31;;;;;;;9.35;6.63;;;23.50;90.10;;;;;;5022827;28;25057;-67
2021/09/22 12:38:03;;;;;;;12.07;7.38;;;23.60;90.20;;;;;;5034894;28;25090;-68
2021/09/22 12:40:39;;;;;;;11.15;6.90;;;23.70;89.90;;;;;;5031494;28;25067;-67
2021/09/22 12:43:26;;;;;;;10.60;7.22;;;24.20;88.10;;;;;;5028013;28;25073;-70
2021/09/22 12:46:08;;;;;;;15.52;6.50;;;24.20;86.80;;;;;;5027904;28;25094;-67
2021/09/22 12:48:34;;;;;;;;;;;23.20;86.40;;;;;;5031348;28;25116;-67